createdAt,value
2023-02-14T00:02:02.180Z,90.93
2023-02-14T00:04:30.811Z,91.08
2023-02-14T00:06:59.024Z,91.12
2023-02-14T00:09:27.233Z,91.08
2023-02-14T00:11:55.584Z,90.96
2023-02-14T00:14:43.022Z,91.27
2023-02-14T00:17:11.273Z,91.18
2023-02-14T00:19:39.615Z,91.11
2023-02-14T00:22:07.739Z,91.25
2023-02-14T00:24:37.860Z,91.25
2023-02-14T00:27:06.357Z,91.17
2023-02-14T00:29:35.250Z,91.20
2023-02-14T00:32:03.988Z,91.40
2023-02-14T00:34:33.649Z,91.33
2023-02-14T00:37:03.319Z,91.35
2023-02-14T00:39:32.010Z,91.55
2023-02-14T00:42:00.047Z,91.36
2023-02-14T00:44:28.317Z,91.40
2023-02-14T00:46:56.471Z,91.64
2023-02-14T00:49:24.820Z,91.38
2023-02-14T00:51:53.240Z,91.55
2023-02-14T00:54:21.822Z,91.53
2023-02-14T00:56:50.165Z,91.65
2023-02-14T00:59:19.893Z,91.50
2023-02-14T01:01:48.367Z,91.66
2023-02-14T01:04:16.432Z,91.61
2023-02-14T01:06:45.866Z,91.61
2023-02-14T01:09:14.827Z,91.65
2023-02-14T01:11:44.090Z,91.54
2023-02-14T01:14:12.409Z,91.69
2023-02-14T01:16:44.805Z,91.71
2023-02-14T01:19:13.380Z,91.74
2023-02-14T01:21:44.922Z,91.57
2023-02-14T01:24:13.409Z,91.64
2023-02-14T01:26:43.749Z,91.56
2023-02-14T01:29:12.214Z,91.83
2023-02-14T01:31:40.814Z,91.71
2023-02-14T01:34:09.082Z,91.91
2023-02-14T01:36:38.829Z,91.92
2023-02-14T01:39:09.314Z,91.76
2023-02-14T01:41:37.998Z,92.03
2023-02-14T01:44:15.616Z,91.97
2023-02-14T01:46:44.902Z,91.92
2023-02-14T01:49:14.842Z,92.00
2023-02-14T01:51:51.403Z,92.01
2023-02-14T01:54:22.630Z,92.12
2023-02-14T01:56:52.311Z,91.87
2023-02-14T01:59:22.861Z,91.97
2023-02-14T02:01:51.231Z,91.98
2023-02-14T02:04:22.949Z,92.02
2023-02-14T02:07:03.032Z,91.95
2023-02-14T02:09:33.295Z,91.89
2023-02-14T02:12:02.403Z,91.97
2023-02-14T02:14:31.796Z,92.08
2023-02-14T02:17:28.633Z,92.01
2023-02-14T02:20:19.356Z,92.13
2023-02-14T02:23:39.374Z,92.00
2023-02-14T02:26:16.629Z,92.06
2023-02-14T02:29:15.913Z,91.96
2023-02-14T02:32:02.465Z,92.12
2023-02-14T02:35:05.710Z,92.05
2023-02-14T02:38:08.225Z,92.08
2023-02-14T02:41:06.279Z,91.95
2023-02-14T02:43:53.937Z,92.09
2023-02-14T02:46:44.576Z,92.20
2023-02-14T02:49:45.040Z,92.17
2023-02-14T02:52:41.335Z,92.24
2023-02-14T02:55:20.334Z,92.25
2023-02-14T02:57:48.575Z,92.30
2023-02-14T03:00:19.209Z,92.29
2023-02-14T03:03:08.374Z,92.39
2023-02-14T03:05:37.439Z,92.34
2023-02-14T03:08:05.793Z,92.47
2023-02-14T03:10:36.584Z,92.49
2023-02-14T03:13:19.522Z,92.50
2023-02-14T03:16:06.965Z,92.33
2023-02-14T03:18:57.939Z,92.33
2023-02-14T03:21:52.544Z,92.55
2023-02-14T03:24:25.329Z,92.48
2023-02-14T03:26:59.655Z,92.52
2023-02-14T03:29:54.014Z,92.63
2023-02-14T03:32:31.726Z,92.56
2023-02-14T03:35:25.749Z,92.65
2023-02-14T03:38:03.629Z,92.76
2023-02-14T03:40:43.672Z,92.75
2023-02-14T03:43:15.947Z,92.82
2023-02-14T03:46:09.032Z,92.74
2023-02-14T03:48:37.574Z,92.74
2023-02-14T03:51:06.106Z,92.98
2023-02-14T03:53:35.720Z,92.84
2023-02-14T03:56:12.651Z,92.73
2023-02-14T03:58:43.993Z,92.97
2023-02-14T04:01:23.470Z,92.97
2023-02-14T04:03:52.938Z,92.83
2023-02-14T04:06:23.077Z,92.80
2023-02-14T04:08:51.854Z,93.01
2023-02-14T04:11:24.084Z,93.01
2023-02-14T04:13:53.127Z,93.03
2023-02-14T04:16:21.304Z,93.06
2023-02-14T04:19:08.307Z,93.11
2023-02-14T04:21:36.712Z,93.20
2023-02-14T04:24:05.981Z,93.18
2023-02-14T04:26:34.978Z,93.19
2023-02-14T04:29:03.997Z,93.06
2023-02-14T04:31:33.207Z,93.32
2023-02-14T04:34:02.953Z,93.13
2023-02-14T04:36:31.708Z,93.17
2023-02-14T04:38:59.872Z,93.34
2023-02-14T04:41:28.231Z,93.42
2023-02-14T04:43:56.724Z,93.31
2023-02-14T04:46:24.823Z,93.41
2023-02-14T04:48:53.261Z,93.37
2023-02-14T04:51:21.532Z,93.46
2023-02-14T04:53:49.866Z,93.45
2023-02-14T04:56:18.051Z,93.65
2023-02-14T04:58:46.268Z,93.51
2023-02-14T05:01:14.618Z,93.46
2023-02-14T05:03:42.831Z,93.42
2023-02-14T05:06:11.003Z,93.48
2023-02-14T05:08:39.280Z,93.44
2023-02-14T05:11:08.061Z,93.43
2023-02-14T05:13:36.333Z,93.55
2023-02-14T05:16:05.679Z,93.48
2023-02-14T05:18:34.011Z,93.53
2023-02-14T05:21:02.314Z,93.47
2023-02-14T05:23:31.078Z,93.49
2023-02-14T05:25:59.254Z,93.49
2023-02-14T05:28:27.535Z,93.31
2023-02-14T05:30:57.252Z,93.35
2023-02-14T05:33:26.342Z,93.20
2023-02-14T05:35:54.611Z,93.24
2023-02-14T05:38:24.423Z,93.31
2023-02-14T05:40:52.632Z,93.20
2023-02-14T05:43:21.391Z,93.32
2023-02-14T05:45:51.191Z,93.21
2023-02-14T05:48:19.809Z,93.15
2023-02-14T05:50:47.972Z,93.18
2023-02-14T05:53:16.199Z,93.16
2023-02-14T05:55:44.946Z,93.07
2023-02-14T05:58:13.793Z,93.08
2023-02-14T06:00:42.945Z,93.04
2023-02-14T06:03:10.997Z,93.08
2023-02-14T06:05:40.354Z,92.87
2023-02-14T06:08:09.084Z,92.65
2023-02-14T06:10:37.375Z,92.88
2023-02-14T06:13:10.762Z,92.81
2023-02-14T06:15:39.135Z,92.79
2023-02-14T06:18:07.420Z,92.51
2023-02-14T06:20:36.254Z,92.53
2023-02-14T06:23:04.967Z,92.56
2023-02-14T06:25:33.259Z,92.53
2023-02-14T06:28:01.299Z,92.40
2023-02-14T06:30:30.133Z,92.32
2023-02-14T06:32:58.304Z,92.17
2023-02-14T06:35:26.478Z,92.04
2023-02-14T06:37:54.988Z,91.65
2023-02-14T06:40:24.154Z,91.70
2023-02-14T06:42:52.286Z,91.42
2023-02-14T06:45:20.737Z,91.22
2023-02-14T06:47:48.756Z,91.10
2023-02-14T06:50:17.081Z,91.12
2023-02-14T06:52:45.338Z,90.94
2023-02-14T06:55:14.127Z,90.83
2023-02-14T06:57:42.315Z,90.54
2023-02-14T07:00:11.707Z,90.50
2023-02-14T07:02:40.136Z,90.36
2023-02-14T07:05:08.908Z,90.38
2023-02-14T07:07:37.154Z,90.31
2023-02-14T07:10:06.349Z,90.24
2023-02-14T07:12:35.066Z,90.21
2023-02-14T07:15:05.185Z,90.13
2023-02-14T07:17:34.072Z,90.08
2023-02-14T07:20:02.659Z,90.14
2023-02-14T07:22:32.064Z,89.87
2023-02-14T07:25:00.311Z,89.99
2023-02-14T07:27:28.350Z,89.75
2023-02-14T07:29:57.354Z,89.68
2023-02-14T07:32:27.363Z,89.67
2023-02-14T07:34:55.653Z,89.39
2023-02-14T07:37:24.078Z,89.39
2023-02-14T07:39:52.755Z,89.07
2023-02-14T07:42:21.013Z,89.15
2023-02-14T07:44:49.897Z,88.75
2023-02-14T07:47:17.970Z,88.53
2023-02-14T07:49:46.713Z,88.09
2023-02-14T07:52:14.998Z,87.82
2023-02-14T07:54:45.064Z,87.46
2023-02-14T07:57:13.648Z,87.08
2023-02-14T07:59:41.934Z,86.83
2023-02-14T08:02:11.546Z,86.21
2023-02-14T08:04:39.640Z,86.01
2023-02-14T08:07:08.496Z,85.89
2023-02-14T08:09:36.668Z,85.71
2023-02-14T08:12:24.661Z,85.55
2023-02-14T08:14:52.892Z,85.55
2023-02-14T08:17:22.243Z,85.52
2023-02-14T08:19:50.867Z,85.39
2023-02-14T08:22:19.511Z,85.12
2023-02-14T08:24:49.086Z,84.67
2023-02-14T08:27:19.736Z,84.39
2023-02-14T08:29:48.035Z,84.13
2023-02-14T08:32:16.317Z,83.47
2023-02-14T08:34:44.726Z,82.57
2023-02-14T08:37:13.410Z,82.30
2023-02-14T08:39:41.589Z,81.64
2023-02-14T08:42:10.697Z,81.43
2023-02-14T08:44:39.410Z,81.26
2023-02-14T08:47:07.699Z,81.51
2023-02-14T08:49:36.228Z,81.61
2023-02-14T08:52:05.780Z,81.65
2023-02-14T08:54:34.136Z,81.51
2023-02-14T08:57:03.549Z,81.66
2023-02-14T08:59:31.725Z,81.63
2023-02-14T09:02:02.661Z,81.69
2023-02-14T09:04:35.461Z,81.57
2023-02-14T09:07:04.820Z,81.58
2023-02-14T09:09:33.122Z,81.49
2023-02-14T09:12:06.594Z,81.63
2023-02-14T09:14:44.059Z,81.68
2023-02-14T09:17:13.220Z,81.84
2023-02-14T09:19:42.160Z,81.87
2023-02-14T09:22:10.806Z,81.70
2023-02-14T09:24:42.239Z,81.90
2023-02-14T09:27:10.880Z,82.18
2023-02-14T09:29:39.185Z,82.14
2023-02-14T09:32:07.554Z,82.37
2023-02-14T09:34:36.762Z,82.47
2023-02-14T09:37:06.421Z,82.38
2023-02-14T09:39:36.694Z,82.39
2023-02-14T09:42:07.653Z,82.21
2023-02-14T09:44:47.594Z,81.90
2023-02-14T09:47:19.554Z,81.90
2023-02-14T09:49:47.928Z,81.73
2023-02-14T09:52:16.688Z,81.19
2023-02-14T09:54:48.249Z,80.89
2023-02-14T09:57:31.910Z,80.44
2023-02-14T10:00:25.370Z,80.12
2023-02-14T10:03:30.873Z,79.91
2023-02-14T10:06:05.912Z,79.68
2023-02-14T10:08:58.081Z,79.59
2023-02-14T10:11:26.497Z,79.35
2023-02-14T10:14:05.539Z,79.26
2023-02-14T10:16:40.323Z,78.71
2023-02-14T10:19:19.976Z,78.28
2023-02-14T10:21:52.867Z,78.14
2023-02-14T10:24:45.823Z,77.83
2023-02-14T10:27:33.143Z,77.31
2023-02-14T10:30:04.846Z,76.90
2023-02-14T10:32:47.896Z,76.66
2023-02-14T10:35:23.839Z,76.22
2023-02-14T10:38:17.839Z,76.00
2023-02-14T10:41:04.072Z,76.33
2023-02-14T10:43:53.404Z,76.18
2023-02-14T10:46:37.312Z,75.94
2023-02-14T10:49:12.947Z,75.65
2023-02-14T10:51:50.653Z,75.53
2023-02-14T10:54:26.342Z,75.29
2023-02-14T10:57:02.020Z,75.19
2023-02-14T10:59:45.438Z,75.10
2023-02-14T11:02:14.755Z,75.05
2023-02-14T11:04:43.256Z,74.88
2023-02-14T11:07:15.424Z,74.72
2023-02-14T11:09:47.676Z,74.83
2023-02-14T11:12:41.143Z,74.71
2023-02-14T11:15:15.672Z,74.90
2023-02-14T11:17:43.943Z,74.96
2023-02-14T11:20:24.593Z,74.77
2023-02-14T11:22:53.341Z,74.88
2023-02-14T11:25:23.272Z,74.78
2023-02-14T11:28:08.360Z,74.93
2023-02-14T11:30:41.599Z,74.78
2023-02-14T11:33:12.757Z,74.64
2023-02-14T11:35:41.554Z,74.93
2023-02-14T11:38:35.950Z,75.13
2023-02-14T11:41:04.856Z,75.01
2023-02-14T11:43:34.694Z,75.12
2023-02-14T11:46:17.214Z,75.06
2023-02-14T11:49:02.941Z,75.32
2023-02-14T11:51:40.337Z,75.38
2023-02-14T11:54:13.538Z,75.54
2023-02-14T11:56:54.115Z,75.48
2023-02-14T11:59:27.040Z,75.68
2023-02-14T12:01:57.951Z,75.77
2023-02-14T12:04:46.954Z,75.98
2023-02-14T12:07:37.447Z,75.86
2023-02-14T12:10:09.456Z,76.17
2023-02-14T12:12:37.707Z,76.29
2023-02-14T12:15:23.490Z,76.30
2023-02-14T12:18:21.141Z,76.08
2023-02-14T12:21:02.096Z,76.21
2023-02-14T12:23:56.314Z,76.06
2023-02-14T12:26:36.557Z,76.05
2023-02-14T12:29:35.482Z,76.05
2023-02-14T12:32:21.672Z,75.81
2023-02-14T12:34:50.124Z,75.39
2023-02-14T12:37:40.420Z,75.67
2023-02-14T12:40:28.254Z,75.45
2023-02-14T12:43:02.869Z,75.59
2023-02-14T12:46:09.600Z,75.49
2023-02-14T12:48:59.948Z,75.75
2023-02-14T12:51:30.894Z,75.66
2023-02-14T12:54:15.655Z,75.82
2023-02-14T12:57:05.115Z,75.86
2023-02-14T12:59:59.622Z,75.97
2023-02-14T13:02:50.163Z,76.27
2023-02-14T13:05:45.863Z,76.29
2023-02-14T13:08:39.923Z,76.61
2023-02-14T13:11:23.558Z,76.87
2023-02-14T13:14:04.670Z,76.82
2023-02-14T13:16:59.992Z,76.95
2023-02-14T13:19:37.354Z,77.12
2023-02-14T13:22:05.721Z,77.22
2023-02-14T13:24:46.528Z,77.40
2023-02-14T13:27:22.909Z,77.56
2023-02-14T13:30:26.096Z,77.61
2023-02-14T13:32:54.232Z,77.81
2023-02-14T13:35:22.461Z,77.95
2023-02-14T13:38:14.572Z,78.27
2023-02-14T13:40:43.862Z,78.21
2023-02-14T13:43:12.124Z,78.48
2023-02-14T13:45:41.255Z,78.58
2023-02-14T13:48:18.660Z,78.76
2023-02-14T13:51:04.484Z,78.74
2023-02-14T13:53:35.887Z,78.90
2023-02-14T13:56:05.977Z,78.92
2023-02-14T13:58:35.358Z,79.11
2023-02-14T14:01:52.988Z,79.17
2023-02-14T14:04:30.585Z,79.45
2023-02-14T14:07:02.694Z,79.47
2023-02-14T14:09:43.234Z,79.69
2023-02-14T14:12:27.217Z,79.83
2023-02-14T14:15:05.202Z,79.84
2023-02-14T14:17:36.310Z,79.92
2023-02-14T14:20:27.764Z,80.17
2023-02-14T14:22:57.572Z,80.21
2023-02-14T14:25:39.390Z,80.23
2023-02-14T14:28:20.784Z,80.05
2023-02-14T14:30:49.532Z,80.00
2023-02-14T14:33:29.264Z,80.06
2023-02-14T14:36:06.078Z,80.11
2023-02-14T14:38:45.779Z,80.04
2023-02-14T14:41:13.985Z,80.07
2023-02-14T14:43:42.234Z,79.95
2023-02-14T14:46:14.656Z,80.15
2023-02-14T14:48:47.345Z,80.17
2023-02-14T14:51:34.826Z,80.39
2023-02-14T14:54:04.984Z,80.56
2023-02-14T14:56:37.774Z,80.48
2023-02-14T14:59:26.103Z,80.50
2023-02-14T15:01:54.663Z,80.59
2023-02-14T15:04:28.017Z,80.75
2023-02-14T15:06:57.668Z,80.78
2023-02-14T15:09:31.715Z,81.01
2023-02-14T15:12:20.332Z,80.75
2023-02-14T15:14:54.672Z,80.84
2023-02-14T15:17:31.950Z,80.73
2023-02-14T15:20:08.421Z,80.98
2023-02-14T15:22:42.121Z,80.83
2023-02-14T15:25:12.169Z,80.80
2023-02-14T15:27:40.935Z,80.93
2023-02-14T15:30:34.842Z,80.78
2023-02-14T15:33:04.577Z,80.57
2023-02-14T15:35:34.324Z,80.41
2023-02-14T15:38:05.169Z,80.18
2023-02-14T15:40:34.563Z,80.15
2023-02-14T15:43:29.768Z,79.90
2023-02-14T15:46:20.414Z,79.93
2023-02-14T15:48:49.211Z,79.75
2023-02-14T15:51:28.815Z,79.70
2023-02-14T15:54:04.124Z,79.77
2023-02-14T15:56:47.003Z,79.54
2023-02-14T15:59:23.571Z,79.45
2023-02-14T16:01:55.184Z,79.33
2023-02-14T16:04:27.860Z,79.22
2023-02-14T16:07:24.065Z,78.98
2023-02-14T16:10:24.528Z,78.63
2023-02-14T16:12:59.343Z,78.39
2023-02-14T16:15:30.258Z,77.88
2023-02-14T16:17:59.128Z,77.74
2023-02-14T16:20:51.404Z,77.15
2023-02-14T16:23:25.124Z,76.98
2023-02-14T16:25:53.917Z,76.67
2023-02-14T16:28:22.142Z,76.53
2023-02-14T16:30:55.537Z,76.36
2023-02-14T16:33:30.938Z,76.47
2023-02-14T16:36:06.553Z,76.29
2023-02-14T16:38:41.621Z,76.20
2023-02-14T16:41:23.211Z,76.13
2023-02-14T16:43:51.913Z,76.06
2023-02-14T16:46:22.036Z,76.03
2023-02-14T16:48:53.760Z,76.39
2023-02-14T16:51:23.809Z,76.41
2023-02-14T16:53:52.181Z,76.71
2023-02-14T16:56:23.197Z,77.02
2023-02-14T16:58:52.241Z,77.25
2023-02-14T17:01:20.731Z,77.44
2023-02-14T17:03:49.311Z,77.86
2023-02-14T17:06:20.326Z,77.99
2023-02-14T17:08:48.795Z,78.38
2023-02-14T17:11:17.686Z,78.52
2023-02-14T17:13:45.767Z,78.88
2023-02-14T17:16:16.727Z,79.07
2023-02-14T17:18:47.772Z,79.22
2023-02-14T17:21:16.148Z,79.46
2023-02-14T17:23:44.438Z,79.52
2023-02-14T17:26:18.015Z,79.84
2023-02-14T17:28:46.699Z,79.95
2023-02-14T17:31:15.187Z,80.39
2023-02-14T17:33:43.765Z,80.62
2023-02-14T17:36:13.476Z,80.65
2023-02-14T17:38:45.304Z,80.68
2023-02-14T17:41:17.090Z,81.11
2023-02-14T17:43:45.788Z,80.94
2023-02-14T17:46:18.806Z,81.19
2023-02-14T17:48:48.364Z,81.10
2023-02-14T17:51:17.183Z,81.29
2023-02-14T17:53:45.459Z,81.06
2023-02-14T17:56:18.196Z,80.83
2023-02-14T17:58:51.402Z,81.00
2023-02-14T18:01:25.782Z,80.77
2023-02-14T18:03:54.555Z,80.87
2023-02-14T18:06:23.110Z,80.83
2023-02-14T18:08:57.140Z,80.65
2023-02-14T18:11:27.058Z,80.73
2023-02-14T18:13:56.140Z,80.56
2023-02-14T18:16:25.136Z,80.52
2023-02-14T18:18:55.042Z,80.50
2023-02-14T18:21:24.732Z,80.40
2023-02-14T18:23:54.014Z,80.29
2023-02-14T18:26:22.158Z,80.27
2023-02-14T18:28:51.309Z,80.18
2023-02-14T18:31:20.633Z,80.34
2023-02-14T18:33:50.150Z,80.13
2023-02-14T18:36:20.860Z,79.99
2023-02-14T18:38:50.417Z,80.03
2023-02-14T18:41:19.533Z,79.97
2023-02-14T18:43:49.520Z,79.94
2023-02-14T18:46:19.928Z,79.85
2023-02-14T18:48:48.174Z,80.11
2023-02-14T18:51:26.479Z,79.95
2023-02-14T18:53:56.338Z,80.08
2023-02-14T18:56:27.844Z,80.20
2023-02-14T18:58:59.438Z,80.28
2023-02-14T19:01:30.605Z,80.30
2023-02-14T19:03:59.976Z,80.31
2023-02-14T19:06:29.808Z,80.53
2023-02-14T19:08:58.460Z,80.40
2023-02-14T19:11:31.857Z,80.67
2023-02-14T19:14:01.413Z,80.63
2023-02-14T19:16:33.890Z,80.60
2023-02-14T19:19:02.818Z,80.58
2023-02-14T19:21:34.373Z,80.46
2023-02-14T19:24:16.808Z,80.58
2023-02-14T19:26:45.089Z,80.69
2023-02-14T19:29:16.985Z,80.67
2023-02-14T19:31:48.640Z,80.66
2023-02-14T19:34:17.766Z,80.62
2023-02-14T19:36:46.289Z,80.81
2023-02-14T19:39:17.550Z,80.73
2023-02-14T19:41:46.770Z,80.78
2023-02-14T19:44:15.339Z,80.71
2023-02-14T19:46:45.014Z,80.71
2023-02-14T19:49:19.128Z,80.85
2023-02-14T19:51:48.351Z,80.88
2023-02-14T19:54:22.186Z,80.74
2023-02-14T19:56:51.340Z,80.84
2023-02-14T19:59:22.068Z,80.79
2023-02-14T20:01:52.674Z,80.74
2023-02-14T20:04:25.412Z,80.91
2023-02-14T20:06:54.942Z,80.94
2023-02-14T20:09:23.674Z,80.74
2023-02-14T20:11:57.083Z,80.94
2023-02-14T20:14:27.654Z,80.69
2023-02-14T20:16:59.097Z,80.91
2023-02-14T20:19:29.551Z,80.83
2023-02-14T20:21:57.755Z,80.81
2023-02-14T20:24:30.842Z,81.01
2023-02-14T20:27:00.564Z,80.79
2023-02-14T20:29:29.139Z,81.02
2023-02-14T20:31:59.903Z,80.79
2023-02-14T20:34:28.768Z,80.95
2023-02-14T20:36:59.696Z,80.81
2023-02-14T20:39:30.601Z,80.92
2023-02-14T20:41:59.731Z,80.76
2023-02-14T20:44:28.637Z,80.59
2023-02-14T20:46:57.349Z,80.68
2023-02-14T20:49:26.618Z,80.80
2023-02-14T20:51:55.098Z,80.54
2023-02-14T20:54:24.805Z,80.46
2023-02-14T20:56:52.963Z,80.56
2023-02-14T20:59:27.815Z,80.47
2023-02-14T21:01:57.109Z,80.67
2023-02-14T21:04:26.618Z,80.64
2023-02-14T21:06:54.712Z,80.53
2023-02-14T21:09:26.353Z,80.48
2023-02-14T21:11:54.831Z,80.46
2023-02-14T21:14:23.141Z,80.36
2023-02-14T21:16:54.881Z,80.35
2023-02-14T21:19:23.367Z,80.26
2023-02-14T21:21:52.031Z,80.38
2023-02-14T21:24:20.719Z,80.14
2023-02-14T21:26:49.410Z,80.05
2023-02-14T21:29:17.998Z,79.99
2023-02-14T21:31:46.499Z,80.09
2023-02-14T21:34:15.672Z,79.83
2023-02-14T21:36:43.848Z,79.60
2023-02-14T21:39:12.564Z,79.36
2023-02-14T21:41:40.918Z,79.48
2023-02-14T21:44:09.236Z,79.33
2023-02-14T21:46:39.131Z,79.34
2023-02-14T21:49:26.606Z,79.31
2023-02-14T21:51:55.017Z,79.16
2023-02-14T21:54:25.254Z,79.22
2023-02-14T21:56:53.421Z,78.97
2023-02-14T21:59:24.345Z,78.84
2023-02-14T22:01:52.510Z,78.98
2023-02-14T22:04:20.910Z,78.91
2023-02-14T22:06:50.104Z,78.78
2023-02-14T22:09:24.146Z,78.75
2023-02-14T22:11:53.130Z,78.85
2023-02-14T22:14:21.157Z,78.89
2023-02-14T22:16:49.365Z,78.81
2023-02-14T22:19:17.839Z,78.87
2023-02-14T22:21:46.046Z,78.97
2023-02-14T22:24:14.497Z,78.88
2023-02-14T22:26:43.859Z,79.02
2023-02-14T22:29:13.805Z,78.99
2023-02-14T22:31:42.715Z,78.96
2023-02-14T22:34:12.831Z,79.01
2023-02-14T22:36:41.943Z,78.90
2023-02-14T22:39:13.474Z,78.78
2023-02-14T22:41:45.636Z,78.77
2023-02-14T22:44:14.339Z,78.67
2023-02-14T22:46:44.065Z,78.57
2023-02-14T22:49:12.485Z,78.29
2023-02-14T22:51:41.627Z,78.27
2023-02-14T22:54:14.837Z,78.24
2023-02-14T22:56:44.578Z,78.00
2023-02-14T22:59:23.746Z,78.08
2023-02-14T23:01:52.484Z,77.94
2023-02-14T23:04:22.078Z,77.82
2023-02-14T23:06:51.256Z,77.72
2023-02-14T23:09:19.933Z,77.46
2023-02-14T23:11:48.207Z,77.27
2023-02-14T23:14:36.448Z,77.24
2023-02-14T23:17:23.779Z,77.20
2023-02-14T23:20:10.689Z,76.99
2023-02-14T23:22:40.420Z,76.64
2023-02-14T23:25:10.346Z,76.72
2023-02-14T23:27:44.130Z,76.55
2023-02-14T23:30:15.789Z,76.45
2023-02-14T23:32:44.060Z,76.52
2023-02-14T23:35:12.150Z,76.27
2023-02-14T23:37:40.616Z,76.29
2023-02-14T23:40:10.091Z,76.27
2023-02-14T23:42:41.267Z,76.12
2023-02-14T23:45:29.238Z,76.28
2023-02-14T23:48:05.134Z,76.16
2023-02-14T23:50:33.488Z,76.23
2023-02-14T23:53:02.366Z,76.30
2023-02-14T23:55:31.727Z,76.37
2023-02-14T23:58:01.345Z,76.16
